Time;durP1;ratioP1;P1;durP2;ratioP2;P2;SDS_P1;SDS_P2;PMS_P1;PMS_P2;Temp;Humidity;BMP_temperature;BMP_pressure;BME280_temperature;BME280_humidity;BME280_pressure;Samples;Min_cycle;Max_cycle;Signal;HPM_P1;HPM_P2
2022/12/24 00:02:22;;;;;;;35.20;17.80;;;;;;;;;;4921962;29;20097;-73
2022/12/24 00:04:48;;;;;;;34.05;18.13;;;;;;;;;;4937635;29;20394;-73
2022/12/24 00:07:13;;;;;;;38.50;17.00;;;;;;;;;;4937342;29;20533;-73
2022/12/24 00:09:39;;;;;;;33.40;16.70;;;;;;;;;;4921602;29;20039;-70
2022/12/24 00:12:05;;;;;;;44.00;18.27;;;;;;;;;;4921988;29;20098;-72
2022/12/24 00:14:31;;;;;;;34.38;18.17;;;;;;;;;;4921496;29;20047;-74
2022/12/24 00:16:56;;;;;;;40.40;17.35;;;;;;;;;;4921411;29;20035;-73
2022/12/24 00:19:23;;;;;;;35.58;16.77;;;;;;;;;;4937462;29;20031;-75
2022/12/24 00:21:48;;;;;;;33.10;16.10;;;;;;;;;;4921486;29;20039;-76
2022/12/24 00:24:15;;;;;;;30.75;16.95;;;;;;;;;;4921674;29;20035;-76
2022/12/24 00:26:43;;;;;;;35.78;16.80;;;;;;;;;;4921671;29;20101;-72
2022/12/24 00:29:10;;;;;;;38.38;17.25;;;;;;;;;;4937015;29;20678;-70
2022/12/24 00:31:36;;;;;;;35.47;16.65;;;;;;;;;;4922489;29;20473;-75
2022/12/24 00:34:01;;;;;;;30.27;15.52;;;;;;;;;;4924582;29;20035;-74
2022/12/24 00:36:27;;;;;;;35.63;15.63;;;;;;;;;;4927840;29;20466;-75
2022/12/24 00:38:53;;;;;;;32.75;15.98;;;;;;;;;;4926375;29;20032;-74
2022/12/24 00:41:24;;;;;;;31.90;15.88;;;;;;;;;;4922934;29;20042;-74
2022/12/24 00:44:01;;;;;;;29.67;14.77;;;;;;;;;;4937006;29;20031;-74
2022/12/24 00:46:29;;;;;;;31.90;16.42;;;;;;;;;;4936590;29;20054;-74
2022/12/24 00:48:56;;;;;;;30.45;15.60;;;;;;;;;;4920484;29;20129;-74
2022/12/24 00:51:22;;;;;;;28.30;14.85;;;;;;;;;;4936730;29;20035;-76
2022/12/24 00:53:48;;;;;;;29.27;15.10;;;;;;;;;;4920276;29;20122;-74
2022/12/24 00:56:13;;;;;;;24.83;13.98;;;;;;;;;;4920634;29;20039;-73
2022/12/24 00:58:39;;;;;;;24.63;14.13;;;;;;;;;;4920459;29;20089;-70
2022/12/24 01:01:05;;;;;;;29.35;14.05;;;;;;;;;;4920860;29;20039;-75
2022/12/24 01:03:34;;;;;;;23.20;13.15;;;;;;;;;;4920630;29;20041;-74
2022/12/24 01:06:02;;;;;;;;;;;;;;;;;;4936316;29;20065;-74
2022/12/24 01:08:28;;;;;;;25.23;14.38;;;;;;;;;;4951938;29;20013;-75
2022/12/24 01:10:53;;;;;;;25.65;13.80;;;;;;;;;;4920174;29;20429;-76
2022/12/24 01:13:19;;;;;;;23.50;12.48;;;;;;;;;;4920160;29;20035;-74
2022/12/24 01:15:45;;;;;;;26.90;13.95;;;;;;;;;;4920384;29;20047;-73
2022/12/24 01:18:11;;;;;;;20.95;11.60;;;;;;;;;;4936403;29;20047;-74
2022/12/24 01:20:37;;;;;;;24.00;12.93;;;;;;;;;;4920472;29;20031;-73
2022/12/24 01:23:03;;;;;;;20.13;12.00;;;;;;;;;;4920259;29;20054;-75
2022/12/24 01:25:28;;;;;;;20.73;11.95;;;;;;;;;;4935583;29;20078;-74
2022/12/24 01:27:54;;;;;;;20.40;11.15;;;;;;;;;;4920325;29;20039;-72
2022/12/24 01:30:20;;;;;;;18.55;11.52;;;;;;;;;;4935792;29;20039;-73
2022/12/24 01:32:46;;;;;;;17.42;11.45;;;;;;;;;;4920262;29;20062;-73
2022/12/24 01:35:12;;;;;;;20.02;10.98;;;;;;;;;;4935830;29;20102;-73
2022/12/24 01:37:38;;;;;;;23.17;11.32;;;;;;;;;;4920706;29;20038;-73
2022/12/24 01:45:42;;;;;;;22.48;11.68;;;;;;;;;;4951986;29;20442;-73
2022/12/24 01:48:30;;;;;;;23.23;11.82;;;;;;;;;;4936259;29;20512;-72
2022/12/24 01:51:16;;;;;;;19.75;10.73;;;;;;;;;;4935675;29;20046;-72
2022/12/24 01:53:43;;;;;;;20.67;11.20;;;;;;;;;;4935730;29;20039;-71
2022/12/24 01:56:10;;;;;;;20.98;12.38;;;;;;;;;;4936144;29;20036;-69
2022/12/24 01:58:36;;;;;;;21.35;12.07;;;;;;;;;;4920226;29;20035;-70
2022/12/24 02:01:05;;;;;;;20.95;12.63;;;;;;;;;;4936776;29;20089;-71
2022/12/24 02:03:31;;;;;;;23.58;13.30;;;;;;;;;;4923922;29;20061;-71
2022/12/24 02:05:59;;;;;;;26.50;13.55;;;;;;;;;;4939511;29;20457;-72
2022/12/24 02:08:38;;;;;;;25.50;13.52;;;;;;;;;;4923815;29;20046;-71
2022/12/24 02:11:18;;;;;;;25.13;13.40;;;;;;;;;;4939409;29;20058;-71
2022/12/24 02:13:52;;;;;;;22.95;13.55;;;;;;;;;;4956629;28;20074;-71
2022/12/24 02:16:26;;;;;;;24.50;13.65;;;;;;;;;;4923674;29;20039;-71
2022/12/24 02:18:57;;;;;;;24.83;14.07;;;;;;;;;;4923487;29;20114;-71
2022/12/24 02:21:29;;;;;;;26.90;13.73;;;;;;;;;;4939378;29;20041;-71
2022/12/24 02:24:02;;;;;;;25.23;13.88;;;;;;;;;;4940342;29;20041;-71
2022/12/24 02:26:31;;;;;;;25.13;14.18;;;;;;;;;;4939799;29;20533;-71
2022/12/24 02:29:23;;;;;;;31.02;15.45;;;;;;;;;;4924088;29;20043;-71
2022/12/24 02:31:57;;;;;;;26.90;14.17;;;;;;;;;;4919094;29;20138;-71
2022/12/24 02:34:29;;;;;;;32.90;14.65;;;;;;;;;;4940145;29;20254;-75
2022/12/24 02:36:58;;;;;;;26.60;13.85;;;;;;;;;;4939772;29;20051;-68
2022/12/24 02:39:28;;;;;;;27.65;14.98;;;;;;;;;;4938400;29;20046;-70
2022/12/24 02:42:05;;;;;;;26.40;14.50;;;;;;;;;;4922728;29;20050;-69
2022/12/24 02:44:33;;;;;;;27.42;15.02;;;;;;;;;;4954279;29;20031;-70
2022/12/24 02:46:59;;;;;;;26.45;15.15;;;;;;;;;;4922568;29;20050;-71
2022/12/24 02:49:25;;;;;;;27.35;14.50;;;;;;;;;;4921987;29;20045;-70
2022/12/24 02:51:52;;;;;;;28.10;14.88;;;;;;;;;;4938256;29;20035;-70
2022/12/24 02:54:18;;;;;;;29.70;15.10;;;;;;;;;;4922302;29;20474;-70
2022/12/24 02:57:05;;;;;;;27.90;15.48;;;;;;;;;;4922181;29;20044;-70
2022/12/24 02:59:46;;;;;;;30.53;15.53;;;;;;;;;;4937612;29;20027;-70
2022/12/24 03:02:26;;;;;;;31.75;15.45;;;;;;;;;;4937977;29;20134;-70
2022/12/24 03:05:10;;;;;;;25.73;14.77;;;;;;;;;;4919734;29;20494;-70
2022/12/24 03:07:42;;;;;;;32.15;15.35;;;;;;;;;;4920262;29;20489;-70
2022/12/24 03:10:13;;;;;;;33.25;16.88;;;;;;;;;;4922167;29;20458;-69
2022/12/24 03:13:01;;;;;;;30.60;15.47;;;;;;;;;;4921944;29;20482;-70
2022/12/24 03:15:28;;;;;;;30.42;16.15;;;;;;;;;;4930997;29;20787;-70
2022/12/24 03:17:56;;;;;;;30.33;15.23;;;;;;;;;;4921018;29;20540;-71
2022/12/24 03:20:25;;;;;;;32.58;16.92;;;;;;;;;;4921757;29;20034;-70
2022/12/24 03:22:51;;;;;;;34.17;16.73;;;;;;;;;;4922006;29;20035;-71
2022/12/24 03:25:18;;;;;;;36.63;16.70;;;;;;;;;;4921754;29;20544;-70
2022/12/24 03:27:44;;;;;;;30.92;16.45;;;;;;;;;;4921965;29;20043;-70
2022/12/24 03:30:12;;;;;;;37.53;17.17;;;;;;;;;;4921754;29;20446;-69
2022/12/24 03:32:38;;;;;;;35.25;16.27;;;;;;;;;;4923112;29;20039;-70
2022/12/24 03:35:05;;;;;;;38.15;17.48;;;;;;;;;;4922843;29;20558;-70
2022/12/24 03:37:31;;;;;;;35.60;17.77;;;;;;;;;;4922871;29;20035;-70
2022/12/24 03:39:57;;;;;;;34.72;16.88;;;;;;;;;;4922963;29;20529;-70
2022/12/24 03:42:23;;;;;;;38.65;17.60;;;;;;;;;;4922926;29;20125;-70
2022/12/24 03:44:49;;;;;;;42.88;19.25;;;;;;;;;;4922967;29;20554;-68
2022/12/24 03:47:14;;;;;;;41.90;18.65;;;;;;;;;;4937714;29;20509;-68
2022/12/24 03:49:40;;;;;;;40.28;18.65;;;;;;;;;;4921777;29;20027;-69
2022/12/24 03:52:06;;;;;;;38.30;18.45;;;;;;;;;;4921509;29;20073;-69
2022/12/24 03:54:31;;;;;;;44.00;19.48;;;;;;;;;;4921064;29;20058;-69
2022/12/24 03:56:57;;;;;;;40.43;16.77;;;;;;;;;;4952697;29;20540;-68
2022/12/24 03:59:23;;;;;;;36.05;17.33;;;;;;;;;;4921255;29;20042;-70
2022/12/24 04:01:49;;;;;;;42.90;18.98;;;;;;;;;;4921029;29;20484;-70
2022/12/24 04:04:15;;;;;;;41.30;18.92;;;;;;;;;;4952743;29;20378;-68
2022/12/24 04:06:48;;;;;;;49.22;17.75;;;;;;;;;;4921003;29;20071;-67
2022/12/24 04:09:14;;;;;;;43.28;19.13;;;;;;;;;;4936574;29;20129;-68
2022/12/24 04:11:39;;;;;;;33.85;16.65;;;;;;;;;;4920119;29;20699;-68
2022/12/24 04:14:05;;;;;;;49.20;20.48;;;;;;;;;;4919823;29;20031;-68
2022/12/24 04:16:31;;;;;;;42.70;19.02;;;;;;;;;;4936430;29;20046;-68
2022/12/24 04:18:57;;;;;;;41.60;17.73;;;;;;;;;;4921134;29;20035;-68
2022/12/24 04:21:22;;;;;;;43.70;18.77;;;;;;;;;;4921368;29;20061;-68
2022/12/24 04:23:51;;;;;;;41.63;19.23;;;;;;;;;;4936956;29;20045;-69
2022/12/24 04:26:17;;;;;;;39.88;17.63;;;;;;;;;;4921905;29;20493;-69
2022/12/24 04:28:43;;;;;;;45.37;19.80;;;;;;;;;;4922137;29;20458;-69
2022/12/24 04:31:11;;;;;;;43.33;19.03;;;;;;;;;;4922231;29;20126;-69
2022/12/24 04:33:37;;;;;;;43.63;19.95;;;;;;;;;;4921984;29;20059;-69
2022/12/24 04:36:04;;;;;;;44.97;18.73;;;;;;;;;;4921945;29;20055;-69
2022/12/24 04:38:31;;;;;;;45.27;19.23;;;;;;;;;;4937727;29;20035;-69
2022/12/24 04:41:00;;;;;;;41.97;19.38;;;;;;;;;;4921509;29;20046;-69
2022/12/24 04:43:27;;;;;;;45.73;19.70;;;;;;;;;;4921382;29;20093;-70
2022/12/24 04:45:53;;;;;;;48.78;19.30;;;;;;;;;;4921721;29;20069;-70
2022/12/24 04:48:19;;;;;;;42.43;20.73;;;;;;;;;;4937544;29;20137;-70
2022/12/24 04:50:46;;;;;;;50.00;19.50;;;;;;;;;;4921358;29;20035;-70
2022/12/24 04:53:13;;;;;;;49.30;20.85;;;;;;;;;;4921865;29;20042;-69
2022/12/24 04:55:43;;;;;;;46.38;18.70;;;;;;;;;;4921574;29;20050;-71
2022/12/24 04:58:09;;;;;;;40.93;18.97;;;;;;;;;;4921607;29;20138;-72
2022/12/24 05:00:35;;;;;;;45.10;18.13;;;;;;;;;;4921081;29;20378;-74
2022/12/24 05:03:01;;;;;;;50.60;21.23;;;;;;;;;;4937296;29;20047;-72
2022/12/24 05:05:27;;;;;;;50.92;20.13;;;;;;;;;;4921009;29;20047;-71
2022/12/24 05:08:02;;;;;;;57.05;22.27;;;;;;;;;;4923701;29;20031;-69
2022/12/24 05:10:27;;;;;;;48.25;19.23;;;;;;;;;;4937202;29;20043;-70
2022/12/24 05:12:53;;;;;;;59.10;21.50;;;;;;;;;;4921143;29;20050;-68
2022/12/24 05:15:19;;;;;;;55.97;20.60;;;;;;;;;;4953079;29;20122;-69
2022/12/24 05:17:47;;;;;;;47.55;19.38;;;;;;;;;;4937190;29;20039;-69
2022/12/24 05:20:13;;;;;;;49.05;21.08;;;;;;;;;;4937653;29;20035;-69
2022/12/24 05:28:07;;;;;;;66.07;21.73;;;;;;;;;;4936825;29;20382;-69
2022/12/24 05:30:33;;;;;;;58.22;21.60;;;;;;;;;;4920764;29;20035;-69
2022/12/24 05:32:59;;;;;;;64.38;21.27;;;;;;;;;;4920673;29;20043;-68
2022/12/24 05:35:24;;;;;;;54.90;22.27;;;;;;;;;;4920530;29;20046;-68
2022/12/24 05:37:50;;;;;;;57.85;20.80;;;;;;;;;;4920714;29;20031;-68
2022/12/24 05:40:16;;;;;;;59.10;21.90;;;;;;;;;;4936977;29;20497;-67
2022/12/24 05:42:42;;;;;;;54.97;20.60;;;;;;;;;;4936665;29;20063;-68
2022/12/24 05:45:08;;;;;;;59.87;22.20;;;;;;;;;;4920710;29;20043;-69
2022/12/24 05:47:33;;;;;;;50.67;21.92;;;;;;;;;;4920038;29;20105;-69
2022/12/24 05:49:59;;;;;;;56.88;21.58;;;;;;;;;;4936383;29;20370;-68
2022/12/24 05:52:25;;;;;;;55.17;21.27;;;;;;;;;;4936320;29;20446;-69
2022/12/24 05:54:51;;;;;;;52.78;21.10;;;;;;;;;;4936635;29;20039;-69
2022/12/24 05:57:16;;;;;;;59.97;22.83;;;;;;;;;;4952550;29;20035;-68
2022/12/24 05:59:42;;;;;;;59.40;22.03;;;;;;;;;;4936679;29;20039;-69
2022/12/24 06:02:08;;;;;;;51.05;21.45;;;;;;;;;;4952520;29;20163;-70
2022/12/24 06:04:33;;;;;;;59.87;22.97;;;;;;;;;;4936298;29;20054;-69
2022/12/24 06:06:59;;;;;;;63.00;23.98;;;;;;;;;;4936105;29;20118;-70
2022/12/24 06:09:25;;;;;;;53.72;22.65;;;;;;;;;;4920268;29;20118;-70
2022/12/24 06:11:51;;;;;;;58.17;23.58;;;;;;;;;;4920780;29;20478;-70
2022/12/24 06:14:16;;;;;;;68.38;24.05;;;;;;;;;;4920795;29;20050;-70
2022/12/24 06:16:42;;;;;;;66.93;24.90;;;;;;;;;;4936422;29;20031;-69
2022/12/24 06:19:08;;;;;;;75.90;24.30;;;;;;;;;;4920471;29;20317;-71
2022/12/24 06:21:33;;;;;;;91.07;24.92;;;;;;;;;;4920398;29;20169;-73
2022/12/24 06:23:59;;;;;;;71.18;22.25;;;;;;;;;;4920302;29;20073;-73
2022/12/24 06:26:27;;;;;;;87.22;22.33;;;;;;;;;;4936499;29;20133;-71
2022/12/24 06:28:53;;;;;;;69.57;23.90;;;;;;;;;;4936304;29;20114;-73
2022/12/24 06:31:20;;;;;;;78.18;24.63;;;;;;;;;;4936833;29;20035;-70
2022/12/24 06:33:45;;;;;;;72.80;21.63;;;;;;;;;;4936728;29;20039;-69
2022/12/24 06:36:16;;;;;;;76.43;24.13;;;;;;;;;;4920629;29;20062;-69
2022/12/24 06:38:42;;;;;;;68.03;25.25;;;;;;;;;;4921130;29;20102;-69
2022/12/24 06:41:08;;;;;;;85.03;25.88;;;;;;;;;;4920611;29;20031;-71
2022/12/24 06:43:34;;;;;;;83.10;25.37;;;;;;;;;;4920570;29;20043;-70
2022/12/24 06:46:00;;;;;;;93.17;25.70;;;;;;;;;;4920537;29;20043;-71
2022/12/24 06:48:26;;;;;;;78.28;24.38;;;;;;;;;;4938745;29;20463;-72
2022/12/24 06:50:52;;;;;;;67.78;23.20;;;;;;;;;;4924174;29;20058;-72
2022/12/24 06:53:18;;;;;;;68.13;23.40;;;;;;;;;;4924048;29;20119;-71
2022/12/24 06:55:44;;;;;;;66.93;23.10;;;;;;;;;;4924106;29;20497;-71
2022/12/24 06:58:10;;;;;;;66.97;22.17;;;;;;;;;;4923781;29;20047;-71
2022/12/24 07:00:36;;;;;;;66.88;22.05;;;;;;;;;;4924034;29;20031;-72
2022/12/24 07:03:01;;;;;;;73.68;22.98;;;;;;;;;;4939787;29;20039;-72
2022/12/24 07:05:28;;;;;;;71.18;22.77;;;;;;;;;;4923486;29;20034;-70
2022/12/24 07:07:54;;;;;;;73.80;23.77;;;;;;;;;;4939904;29;20473;-72
2022/12/24 07:10:20;;;;;;;78.67;24.07;;;;;;;;;;4924058;29;20039;-71
2022/12/24 07:12:49;;;;;;;69.65;23.90;;;;;;;;;;4923706;29;20090;-70
2022/12/24 07:15:15;;;;;;;69.15;23.25;;;;;;;;;;4955328;29;20070;-71
2022/12/24 07:17:41;;;;;;;71.47;23.13;;;;;;;;;;4923216;29;20268;-71
2022/12/24 07:20:10;;;;;;;70.97;22.90;;;;;;;;;;4923616;29;20050;-71
2022/12/24 07:22:36;;;;;;;57.80;20.17;;;;;;;;;;4939201;29;20093;-72
2022/12/24 07:25:04;;;;;;;60.65;20.98;;;;;;;;;;4923448;29;20030;-73
2022/12/24 07:27:30;;;;;;;59.17;21.10;;;;;;;;;;4955211;29;20035;-72
2022/12/24 07:29:56;;;;;;;50.75;19.92;;;;;;;;;;4923315;29;20134;-71
2022/12/24 07:32:21;;;;;;;46.13;19.05;;;;;;;;;;4923146;29;20134;-70
2022/12/24 07:34:47;;;;;;;49.80;20.30;;;;;;;;;;4936805;29;20066;-71
2022/12/24 07:37:14;;;;;;;49.13;20.23;;;;;;;;;;4937777;29;20536;-70
2022/12/24 07:39:40;;;;;;;52.53;21.02;;;;;;;;;;4922468;29;20039;-69
2022/12/24 07:42:06;;;;;;;49.92;18.92;;;;;;;;;;4920191;29;20043;-69
2022/12/24 07:44:34;;;;;;;44.65;18.65;;;;;;;;;;4922781;29;20047;-70
2022/12/24 07:47:00;;;;;;;37.25;17.50;;;;;;;;;;4922675;29;20090;-71
2022/12/24 07:49:26;;;;;;;42.20;16.55;;;;;;;;;;4923072;29;20063;-71
2022/12/24 07:51:51;;;;;;;38.05;17.65;;;;;;;;;;4923607;29;20536;-70
2022/12/24 07:54:17;;;;;;;38.20;16.48;;;;;;;;;;4923456;29;20094;-70
2022/12/24 07:56:43;;;;;;;42.60;17.67;;;;;;;;;;4939293;29;20035;-70
2022/12/24 07:59:12;;;;;;;41.95;19.42;;;;;;;;;;4923490;29;20483;-70
2022/12/24 08:01:38;;;;;;;41.33;17.00;;;;;;;;;;4923372;29;20035;-70
2022/12/24 08:04:04;;;;;;;41.53;19.20;;;;;;;;;;4923223;29;20104;-70
2022/12/24 08:06:30;;;;;;;46.15;20.08;;;;;;;;;;4938733;29;20055;-70
2022/12/24 08:08:56;;;;;;;47.38;19.10;;;;;;;;;;4923077;29;20085;-70
2022/12/24 08:11:22;;;;;;;42.17;18.33;;;;;;;;;;4923247;29;20133;-70
2022/12/24 08:13:49;;;;;;;42.45;18.23;;;;;;;;;;4923449;29;20043;-70
2022/12/24 08:16:16;;;;;;;47.23;18.77;;;;;;;;;;4922072;29;20184;-70
2022/12/24 08:18:44;;;;;;;54.70;20.55;;;;;;;;;;4935633;29;20122;-70
2022/12/24 08:21:13;;;;;;;44.78;17.92;;;;;;;;;;4919862;29;20135;-70
2022/12/24 08:23:41;;;;;;;;;;;;;;;;;;4937228;29;20051;-70
2022/12/24 08:26:07;;;;;;;43.97;17.88;;;;;;;;;;4934927;29;19988;-71
2022/12/24 08:28:34;;;;;;;43.17;17.80;;;;;;;;;;4920848;29;20533;-70
2022/12/24 08:31:00;;;;;;;48.07;18.80;;;;;;;;;;4920653;29;20421;-69
2022/12/24 08:33:28;;;;;;;52.03;20.10;;;;;;;;;;4938491;29;20505;-70
2022/12/24 08:35:54;;;;;;;49.35;19.77;;;;;;;;;;4922682;29;20042;-70
2022/12/24 08:38:20;;;;;;;55.42;21.48;;;;;;;;;;4922612;29;20039;-69
2022/12/24 08:40:48;;;;;;;50.15;18.73;;;;;;;;;;4922536;29;20090;-70
2022/12/24 08:43:16;;;;;;;51.90;19.33;;;;;;;;;;4922414;29;20038;-70
2022/12/24 08:45:42;;;;;;;47.42;19.77;;;;;;;;;;4938090;29;20059;-69
2022/12/24 08:48:09;;;;;;;55.80;20.37;;;;;;;;;;4922553;29;20046;-69
2022/12/24 08:50:38;;;;;;;52.75;20.10;;;;;;;;;;4921989;29;20043;-69
2022/12/24 08:53:03;;;;;;;48.87;21.70;;;;;;;;;;4922022;29;20086;-69
2022/12/24 08:55:29;;;;;;;57.37;22.30;;;;;;;;;;4922065;29;20038;-69
2022/12/24 08:57:55;;;;;;;54.27;20.90;;;;;;;;;;4954134;29;20130;-69
2022/12/24 09:00:21;;;;;;;48.88;19.70;;;;;;;;;;4922119;29;20039;-69
2022/12/24 09:02:46;;;;;;;48.33;19.13;;;;;;;;;;4921749;29;20035;-69
2022/12/24 09:05:12;;;;;;;49.27;20.00;;;;;;;;;;4937527;29;20031;-69
2022/12/24 09:07:38;;;;;;;40.87;18.00;;;;;;;;;;4921583;29;20069;-69
2022/12/24 09:10:04;;;;;;;50.50;19.60;;;;;;;;;;4921549;29;20045;-69
2022/12/24 09:12:31;;;;;;;45.20;19.17;;;;;;;;;;4921904;29;20035;-69
2022/12/24 09:14:57;;;;;;;51.90;19.97;;;;;;;;;;4921708;29;20472;-69
2022/12/24 09:17:23;;;;;;;46.40;18.77;;;;;;;;;;4922233;29;20058;-69
2022/12/24 09:19:49;;;;;;;46.53;18.90;;;;;;;;;;4921609;29;20038;-68
2022/12/24 09:22:15;;;;;;;44.20;18.88;;;;;;;;;;4921538;29;20035;-68
2022/12/24 09:24:41;;;;;;;43.53;18.53;;;;;;;;;;4937337;29;20039;-69
2022/12/24 09:27:07;;;;;;;51.83;19.90;;;;;;;;;;4921377;29;20058;-69
2022/12/24 09:29:33;;;;;;;48.00;19.27;;;;;;;;;;4921430;29;20035;-69
2022/12/24 09:31:58;;;;;;;42.40;18.37;;;;;;;;;;4921612;29;20043;-69
2022/12/24 09:34:26;;;;;;;42.07;18.20;;;;;;;;;;4921865;29;20130;-69
2022/12/24 09:36:53;;;;;;;43.60;18.97;;;;;;;;;;4921748;29;20159;-69
2022/12/24 09:39:19;;;;;;;50.30;20.67;;;;;;;;;;4921797;29;20045;-69
2022/12/24 09:41:53;;;;;;;50.83;19.95;;;;;;;;;;4921371;29;20034;-69
2022/12/24 09:44:33;;;;;;;47.03;19.80;;;;;;;;;;4921391;29;20494;-68
2022/12/24 09:47:01;;;;;;;44.63;18.07;;;;;;;;;;4921518;29;20046;-69
2022/12/24 09:49:35;;;;;;;46.33;19.27;;;;;;;;;;4921572;29;20035;-69
2022/12/24 09:52:05;;;;;;;48.00;19.93;;;;;;;;;;4921474;29;20051;-70
2022/12/24 09:54:33;;;;;;;46.97;19.27;;;;;;;;;;4921317;29;20035;-69
2022/12/24 09:57:01;;;;;;;49.05;18.77;;;;;;;;;;4921457;29;20035;-69
2022/12/24 09:59:36;;;;;;;45.38;17.15;;;;;;;;;;4937481;29;20103;-68
2022/12/24 10:02:01;;;;;;;43.53;17.92;;;;;;;;;;4921246;29;20062;-69
2022/12/24 10:04:28;;;;;;;59.65;20.45;;;;;;;;;;4921607;29;20474;-69
2022/12/24 10:07:05;;;;;;;51.67;20.83;;;;;;;;;;4921113;29;20117;-68
2022/12/24 10:09:38;;;;;;;59.90;21.33;;;;;;;;;;4921485;29;20138;-69
2022/12/24 10:12:16;;;;;;;64.32;22.27;;;;;;;;;;4921240;29;20490;-68
2022/12/24 10:14:44;;;;;;;62.65;22.00;;;;;;;;;;4921473;29;20043;-68
2022/12/24 10:17:16;;;;;;;51.85;19.40;;;;;;;;;;4921200;29;20054;-68
2022/12/24 10:19:43;;;;;;;63.83;21.85;;;;;;;;;;4921172;29;20042;-69
2022/12/24 10:22:27;;;;;;;64.95;21.88;;;;;;;;;;4921753;29;20125;-69
2022/12/24 10:25:01;;;;;;;61.10;21.95;;;;;;;;;;4924784;29;20050;-69
2022/12/24 10:27:31;;;;;;;81.68;24.08;;;;;;;;;;4957083;29;20078;-68
2022/12/24 10:30:03;;;;;;;80.93;23.38;;;;;;;;;;4925172;29;20038;-68
2022/12/24 10:32:30;;;;;;;73.07;23.13;;;;;;;;;;4925144;29;20039;-68
2022/12/24 10:35:01;;;;;;;68.63;23.13;;;;;;;;;;4924575;29;20150;-68
2022/12/24 10:37:27;;;;;;;88.65;26.48;;;;;;;;;;4924772;28;20043;-68
2022/12/24 10:39:54;;;;;;;82.50;24.30;;;;;;;;;;4940664;29;20043;-68
2022/12/24 10:42:22;;;;;;;71.68;23.23;;;;;;;;;;4924708;29;20042;-68
2022/12/24 10:44:56;;;;;;;85.47;25.53;;;;;;;;;;4940372;29;20142;-69
2022/12/24 10:47:22;;;;;;;75.72;23.23;;;;;;;;;;4940318;29;20114;-68
2022/12/24 10:49:53;;;;;;;73.63;24.52;;;;;;;;;;4924393;29;20039;-69
2022/12/24 10:52:21;;;;;;;81.40;26.67;;;;;;;;;;4956265;29;20195;-68
2022/12/24 10:55:06;;;;;;;69.28;24.15;;;;;;;;;;4924172;29;20042;-69
2022/12/24 10:57:32;;;;;;;63.38;22.27;;;;;;;;;;4924647;29;20075;-69
2022/12/24 10:59:58;;;;;;;56.28;22.00;;;;;;;;;;4924104;29;20043;-68
2022/12/24 11:02:32;;;;;;;51.60;21.13;;;;;;;;;;4924054;29;20047;-68
2022/12/24 11:04:59;;;;;;;57.60;22.37;;;;;;;;;;4924296;29;20043;-69
2022/12/24 11:07:25;;;;;;;65.73;22.07;;;;;;;;;;4923894;29;20095;-68
2022/12/24 11:09:55;;;;;;;59.72;21.25;;;;;;;;;;4923997;29;20039;-69
2022/12/24 11:12:22;;;;;;;64.90;23.25;;;;;;;;;;4923916;29;20382;-69
2022/12/24 11:14:58;;;;;;;63.17;23.90;;;;;;;;;;4939851;29;20474;-68
2022/12/24 11:17:24;;;;;;;62.80;22.92;;;;;;;;;;4939855;29;20045;-69
2022/12/24 11:19:50;;;;;;;66.28;23.48;;;;;;;;;;4923741;29;20039;-69
2022/12/24 11:22:23;;;;;;;58.53;21.83;;;;;;;;;;4923862;29;20393;-68
2022/12/24 11:24:57;;;;;;;61.43;23.27;;;;;;;;;;4923733;29;20058;-69
2022/12/24 11:27:29;;;;;;;55.20;20.63;;;;;;;;;;4939490;29;20536;-68
2022/12/24 11:30:13;;;;;;;65.47;22.45;;;;;;;;;;4923648;29;20050;-68
2022/12/24 11:32:39;;;;;;;64.93;23.02;;;;;;;;;;4923301;28;20142;-68
2022/12/24 11:35:14;;;;;;;60.00;21.80;;;;;;;;;;4923436;29;20130;-68
2022/12/24 11:37:40;;;;;;;65.30;23.10;;;;;;;;;;4923610;29;20462;-68
2022/12/24 11:40:18;;;;;;;66.35;24.45;;;;;;;;;;4923479;29;20098;-70
2022/12/24 11:42:46;;;;;;;65.82;23.38;;;;;;;;;;4939011;29;20482;-69
2022/12/24 11:45:23;;;;;;;67.93;24.03;;;;;;;;;;4923282;29;20039;-68
2022/12/24 11:47:52;;;;;;;71.25;24.17;;;;;;;;;;4939062;29;20401;-68
2022/12/24 11:50:19;;;;;;;84.53;25.45;;;;;;;;;;4923287;29;20039;-68
2022/12/24 11:52:56;;;;;;;76.82;25.17;;;;;;;;;;4923544;29;20439;-68
2022/12/24 11:55:25;;;;;;;66.77;23.47;;;;;;;;;;4939169;29;20458;-68
2022/12/24 11:58:04;;;;;;;65.60;24.13;;;;;;;;;;4923092;29;20042;-68
2022/12/24 12:00:30;;;;;;;59.38;22.80;;;;;;;;;;4923185;29;20042;-69
2022/12/24 12:03:00;;;;;;;65.53;23.58;;;;;;;;;;4923527;29;20031;-68
2022/12/24 12:05:28;;;;;;;75.77;24.17;;;;;;;;;;4922923;29;20492;-68
2022/12/24 12:07:57;;;;;;;63.85;22.67;;;;;;;;;;4938859;29;20422;-68
2022/12/24 12:10:30;;;;;;;59.67;22.23;;;;;;;;;;4922957;29;20036;-68
2022/12/24 12:13:02;;;;;;;65.80;23.60;;;;;;;;;;4923580;29;20412;-68
2022/12/24 12:15:40;;;;;;;61.20;22.98;;;;;;;;;;4923389;29;20355;-68
2022/12/24 12:18:14;;;;;;;60.22;22.63;;;;;;;;;;4923195;29;20517;-69
2022/12/24 12:20:45;;;;;;;65.28;23.35;;;;;;;;;;4922808;29;20059;-69
2022/12/24 12:23:26;;;;;;;57.53;20.20;;;;;;;;;;4922916;29;20078;-68
2022/12/24 12:25:54;;;;;;;40.38;17.38;;;;;;;;;;4938368;29;20125;-68
2022/12/24 12:28:25;;;;;;;39.22;17.42;;;;;;;;;;4938727;29;20046;-68
2022/12/24 12:30:51;;;;;;;;;;;;;;;;;;4923271;29;20129;-68
2022/12/24 12:33:16;;;;;;;35.97;15.57;;;;;;;;;;4922635;29;20013;-68
2022/12/24 12:35:43;;;;;;;31.20;14.90;;;;;;;;;;4938471;29;20027;-69
2022/12/24 12:38:15;;;;;;;35.17;16.17;;;;;;;;;;4922774;29;20071;-69
2022/12/24 12:40:53;;;;;;;24.85;13.55;;;;;;;;;;4938575;29;20137;-68
2022/12/24 12:43:18;;;;;;;32.40;13.23;;;;;;;;;;4938365;29;20434;-68
2022/12/24 12:45:56;;;;;;;28.88;14.10;;;;;;;;;;4937970;29;20106;-68
2022/12/24 12:48:22;;;;;;;32.10;14.83;;;;;;;;;;4922527;29;20053;-68
2022/12/24 12:51:08;;;;;;;38.75;16.23;;;;;;;;;;4937858;29;20039;-69
2022/12/24 12:53:49;;;;;;;31.43;14.30;;;;;;;;;;4954327;29;20114;-69
2022/12/24 12:56:16;;;;;;;34.85;15.00;;;;;;;;;;4922069;29;20043;-69
2022/12/24 12:59:00;;;;;;;34.78;14.80;;;;;;;;;;4922201;29;20462;-68
2022/12/24 13:01:47;;;;;;;25.47;13.40;;;;;;;;;;4922310;29;20126;-69
2022/12/24 13:04:38;;;;;;;31.58;14.85;;;;;;;;;;4937155;29;20066;-65
2022/12/24 13:07:04;;;;;;;25.45;14.65;;;;;;;;;;4937290;29;20070;-66
2022/12/24 13:09:55;;;;;;;31.38;15.30;;;;;;;;;;4924017;29;20035;-64
2022/12/24 13:12:39;;;;;;;32.60;15.55;;;;;;;;;;4922999;29;20047;-75
2022/12/24 13:15:08;;;;;;;25.73;14.33;;;;;;;;;;4955754;29;20074;-73
2022/12/24 13:17:40;;;;;;;34.20;15.85;;;;;;;;;;4937373;29;20043;-78
2022/12/24 13:20:26;;;;;;;28.45;15.10;;;;;;;;;;4921383;29;20155;-77
2022/12/24 13:22:57;;;;;;;27.15;13.88;;;;;;;;;;4920924;29;20058;-74
2022/12/24 13:25:33;;;;;;;30.05;13.93;;;;;;;;;;4921435;29;20094;-76
2022/12/24 13:28:13;;;;;;;28.40;13.82;;;;;;;;;;4953342;29;20061;-78
2022/12/24 13:30:39;;;;;;;27.08;14.23;;;;;;;;;;4921842;29;20035;-73
2022/12/24 13:33:09;;;;;;;29.65;14.40;;;;;;;;;;4952977;29;20129;-72
2022/12/24 13:35:35;;;;;;;30.97;15.10;;;;;;;;;;4920817;29;20031;-71
2022/12/24 13:38:19;;;;;;;27.93;14.00;;;;;;;;;;4951649;29;20038;-70
2022/12/24 13:40:47;;;;;;;27.37;14.17;;;;;;;;;;4934844;29;20118;-72
2022/12/24 13:43:13;;;;;;;26.38;13.35;;;;;;;;;;4935400;29;20134;-71
2022/12/24 13:45:38;;;;;;;26.88;13.02;;;;;;;;;;4920046;29;20031;-72
2022/12/24 13:48:07;;;;;;;24.70;13.02;;;;;;;;;;4919606;29;20076;-71
2022/12/24 13:50:51;;;;;;;26.65;12.13;;;;;;;;;;4922155;29;20616;-71
2022/12/24 13:53:21;;;;;;;23.83;11.85;;;;;;;;;;4919038;29;20043;-71
2022/12/24 13:55:51;;;;;;;23.63;11.80;;;;;;;;;;4953588;29;20126;-71
2022/12/24 13:58:18;;;;;;;21.60;11.38;;;;;;;;;;4950587;29;20061;-70
2022/12/24 14:00:52;;;;;;;21.50;11.95;;;;;;;;;;4935678;29;20039;-72
2022/12/24 14:03:22;;;;;;;29.85;12.60;;;;;;;;;;4935440;29;20035;-72
2022/12/24 14:05:56;;;;;;;27.83;15.70;;;;;;;;;;4951030;29;20059;-72
2022/12/24 14:08:21;;;;;;;36.75;18.23;;;;;;;;;;4949621;29;20039;-73
2022/12/24 14:11:02;;;;;;;36.75;17.65;;;;;;;;;;4935889;29;20037;-72
2022/12/24 14:13:28;;;;;;;;;;;;;;;;;;4937342;29;20094;-73
2022/12/24 14:15:56;;;;;;;30.37;16.87;;;;;;;;;;4969003;28;19914;-72
2022/12/24 14:18:23;;;;;;;34.13;17.20;;;;;;;;;;4919740;29;20042;-73
2022/12/24 14:20:50;;;;;;;33.45;17.63;;;;;;;;;;4935945;29;20031;-73
2022/12/24 14:23:35;;;;;;;32.55;18.35;;;;;;;;;;4933850;29;20032;-72
2022/12/24 14:26:02;;;;;;;31.42;18.20;;;;;;;;;;4918184;29;20039;-72
2022/12/24 14:29:00;;;;;;;38.08;18.88;;;;;;;;;;4951641;29;20126;-73
2022/12/24 14:31:26;;;;;;;33.05;16.98;;;;;;;;;;4883436;29;20071;-73
2022/12/24 14:34:04;;;;;;;30.33;15.38;;;;;;;;;;4935472;29;20109;-73
2022/12/24 14:36:30;;;;;;;28.15;14.23;;;;;;;;;;4935422;29;20035;-72
2022/12/24 14:38:58;;;;;;;24.25;13.98;;;;;;;;;;4951629;29;20039;-73
2022/12/24 14:41:43;;;;;;;22.37;13.13;;;;;;;;;;4919921;29;20046;-73